sensor_id;sensor_type;location;lat;lon;timestamp;pressure;altitude;pressure_sealevel;temperature;humidity
11053;BME280;55230;42.602;23.470;2023-03-21T00:02:02;93265.69;;;11.01;60.96
11053;BME280;55230;42.602;23.470;2023-03-21T00:04:29;93321.34;;;11.31;60.63
11053;BME280;55230;42.602;23.470;2023-03-21T00:06:57;93045.13;;;9.34;59.41
11053;BME280;55230;42.602;23.470;2023-03-21T00:09:23;93302.41;;;11.40;59.64
11053;BME280;55230;42.602;23.470;2023-03-21T00:11:50;93282.47;;;11.37;58.49
11053;BME280;55230;42.602;23.470;2023-03-21T00:14:17;93303.03;;;11.35;59.38
11053;BME280;55230;42.602;23.470;2023-03-21T00:16:44;93123.25;;;10.30;59.11
11053;BME280;55230;42.602;23.470;2023-03-21T00:19:16;93337.06;;;11.83;59.76
11053;BME280;55230;42.602;23.470;2023-03-21T00:21:43;93302.47;;;11.22;59.12
11053;BME280;55230;42.602;23.470;2023-03-21T00:24:10;93038.66;;;9.77;60.02
11053;BME280;55230;42.602;23.470;2023-03-21T00:26:37;93331.00;;;11.55;59.66
11053;BME280;55230;42.602;23.470;2023-03-21T00:29:04;93300.97;;;11.30;59.79
11053;BME280;55230;42.602;23.470;2023-03-21T00:31:31;93150.19;;;10.30;60.47
11053;BME280;55230;42.602;23.470;2023-03-21T00:33:58;93282.59;;;11.01;60.28
11053;BME280;55230;42.602;23.470;2023-03-21T00:36:26;93293.38;;;11.01;60.52
11053;BME280;55230;42.602;23.470;2023-03-21T00:38:53;93279.63;;;10.90;59.51
11053;BME280;55230;42.602;23.470;2023-03-21T00:41:20;93345.94;;;11.33;58.90
11053;BME280;55230;42.602;23.470;2023-03-21T00:43:47;93333.50;;;11.26;60.70
11053;BME280;55230;42.602;23.470;2023-03-21T00:46:14;93363.19;;;11.26;60.41
11053;BME280;55230;42.602;23.470;2023-03-21T00:48:40;93346.25;;;11.26;60.58
11053;BME280;55230;42.602;23.470;2023-03-21T00:51:11;93223.56;;;10.25;61.38
11053;BME280;55230;42.602;23.470;2023-03-21T00:53:41;93315.16;;;10.80;62.54
11053;BME280;55230;42.602;23.470;2023-03-21T00:56:08;93345.88;;;10.91;61.90
11053;BME280;55230;42.602;23.470;2023-03-21T00:58:35;93348.09;;;10.84;63.02
11053;BME280;55230;42.602;23.470;2023-03-21T01:01:02;93243.88;;;9.81;64.30
11053;BME280;55230;42.602;23.470;2023-03-21T01:03:32;93355.78;;;10.67;65.49
11053;BME280;55230;42.602;23.470;2023-03-21T01:06:08;93334.38;;;10.45;65.85
11053;BME280;55230;42.602;23.470;2023-03-21T01:08:39;93344.41;;;10.45;65.98
11053;BME280;55230;42.602;23.470;2023-03-21T01:11:11;93342.59;;;10.42;66.26
11053;BME280;55230;42.602;23.470;2023-03-21T01:13:38;93341.22;;;10.19;67.11
11053;BME280;55230;42.602;23.470;2023-03-21T01:16:07;93299.88;;;9.95;67.72
11053;BME280;55230;42.602;23.470;2023-03-21T01:18:36;93232.03;;;9.52;67.46
11053;BME280;55230;42.602;23.470;2023-03-21T01:21:06;93336.09;;;10.03;69.49
11053;BME280;55230;42.602;23.470;2023-03-21T01:23:34;93344.75;;;9.98;70.22
11053;BME280;55230;42.602;23.470;2023-03-21T01:26:01;93332.16;;;9.86;70.55
11053;BME280;55230;42.602;23.470;2023-03-21T01:28:29;93328.09;;;9.73;71.11
11053;BME280;55230;42.602;23.470;2023-03-21T01:30:56;93319.66;;;9.62;71.50
11053;BME280;55230;42.602;23.470;2023-03-21T01:33:23;93260.13;;;9.02;71.90
11053;BME280;55230;42.602;23.470;2023-03-21T01:35:50;93223.72;;;8.49;72.50
11053;BME280;55230;42.602;23.470;2023-03-21T01:38:16;93332.22;;;9.25;73.75
11053;BME280;55230;42.602;23.470;2023-03-21T01:40:44;93322.34;;;9.22;73.57
11053;BME280;55230;42.602;23.470;2023-03-21T01:43:20;93324.13;;;9.16;74.66
11053;BME280;55230;42.602;23.470;2023-03-21T01:46:20;93280.66;;;8.87;75.10
11053;BME280;55230;42.602;23.470;2023-03-21T01:48:50;93321.28;;;9.10;75.60
11053;BME280;55230;42.602;23.470;2023-03-21T01:51:20;93323.78;;;9.05;76.63
11053;BME280;55230;42.602;23.470;2023-03-21T01:53:47;93318.41;;;9.05;76.80
11053;BME280;55230;42.602;23.470;2023-03-21T01:56:18;93310.97;;;8.87;77.71
11053;BME280;55230;42.602;23.470;2023-03-21T01:58:46;93318.53;;;9.01;78.31
11053;BME280;55230;42.602;23.470;2023-03-21T02:01:14;93326.19;;;9.12;78.05
11053;BME280;55230;42.602;23.470;2023-03-21T02:03:44;93252.91;;;8.68;78.06
11053;BME280;55230;42.602;23.470;2023-03-21T02:06:20;93322.97;;;9.26;77.53
11053;BME280;55230;42.602;23.470;2023-03-21T02:08:51;93327.47;;;9.29;77.24
11053;BME280;55230;42.602;23.470;2023-03-21T02:11:18;93320.88;;;9.21;77.40
11053;BME280;55230;42.602;23.470;2023-03-21T02:13:46;93321.78;;;9.27;77.62
11053;BME280;55230;42.602;23.470;2023-03-21T02:16:19;93326.13;;;9.24;77.47
11053;BME280;55230;42.602;23.470;2023-03-21T02:18:53;93134.78;;;8.03;76.43
11053;BME280;55230;42.602;23.470;2023-03-21T02:21:53;93321.78;;;9.27;76.03
11053;BME280;55230;42.602;23.470;2023-03-21T02:25:05;93310.25;;;9.17;76.31
11053;BME280;55230;42.602;23.470;2023-03-21T02:27:39;93313.69;;;9.18;75.97
11053;BME280;55230;42.602;23.470;2023-03-21T02:33:36;93319.63;;;9.13;75.96
11053;BME280;55230;42.602;23.470;2023-03-21T02:36:16;93275.69;;;8.76;75.75
11053;BME280;55230;42.602;23.470;2023-03-21T02:38:53;93318.41;;;9.05;76.28
11053;BME280;55230;42.602;23.470;2023-03-21T02:41:28;93313.78;;;9.05;75.98
11053;BME280;55230;42.602;23.470;2023-03-21T02:44:03;93311.66;;;9.00;75.82
11053;BME280;55230;42.602;23.470;2023-03-21T02:46:37;93309.81;;;8.97;76.17
11053;BME280;55230;42.602;23.470;2023-03-21T02:49:08;93310.28;;;8.96;76.59
11053;BME280;55230;42.602;23.470;2023-03-21T02:51:38;93304.03;;;8.99;76.76
11053;BME280;55230;42.602;23.470;2023-03-21T02:54:11;93303.78;;;9.06;76.22
11053;BME280;55230;42.602;23.470;2023-03-21T02:56:39;93256.38;;;8.69;75.54
11053;BME280;55230;42.602;23.470;2023-03-21T02:59:08;93299.31;;;9.12;75.20
11053;BME280;55230;42.602;23.470;2023-03-21T03:01:35;93303.00;;;9.05;74.97
11053;BME280;55230;42.602;23.470;2023-03-21T03:04:02;93305.16;;;8.89;76.09
11053;BME280;55230;42.602;23.470;2023-03-21T03:06:37;93232.94;;;8.48;76.08
11053;BME280;55230;42.602;23.470;2023-03-21T03:09:18;93251.06;;;8.56;76.06
11053;BME280;55230;42.602;23.470;2023-03-21T03:11:54;93262.66;;;7.88;81.20
11053;BME280;55230;42.602;23.470;2023-03-21T03:14:41;93309.78;;;8.24;82.23
11053;BME280;55230;42.602;23.470;2023-03-21T03:17:19;93154.25;;;7.05;82.02
11053;BME280;55230;42.602;23.470;2023-03-21T03:20:03;93325.25;;;8.19;82.07
11053;BME280;55230;42.602;23.470;2023-03-21T03:22:39;93293.28;;;7.66;82.49
11053;BME280;55230;42.602;23.470;2023-03-21T03:25:12;93303.75;;;7.85;83.28
11053;BME280;55230;42.602;23.470;2023-03-21T03:27:41;93314.47;;;7.98;83.56
11053;BME280;55230;42.602;23.470;2023-03-21T03:30:11;93313.41;;;7.95;83.55
11053;BME280;55230;42.602;23.470;2023-03-21T03:32:43;93204.31;;;7.21;84.08
11053;BME280;55230;42.602;23.470;2023-03-21T03:35:14;93276.34;;;7.56;84.19
11053;BME280;55230;42.602;23.470;2023-03-21T03:37:44;93309.06;;;7.76;85.05
11053;BME280;55230;42.602;23.470;2023-03-21T03:40:17;93254.28;;;7.27;84.92
11053;BME280;55230;42.602;23.470;2023-03-21T03:42:48;93306.59;;;7.69;85.05
11053;BME280;55230;42.602;23.470;2023-03-21T03:45:18;93304.38;;;7.55;85.79
11053;BME280;55230;42.602;23.470;2023-03-21T03:47:48;93295.56;;;7.42;86.67
11053;BME280;55230;42.602;23.470;2023-03-21T03:50:22;93259.97;;;7.04;87.33
11053;BME280;55230;42.602;23.470;2023-03-21T03:52:55;93256.56;;;6.91;87.11
11053;BME280;55230;42.602;23.470;2023-03-21T03:55:26;93211.63;;;6.70;87.34
11053;BME280;55230;42.602;23.470;2023-03-21T03:57:59;93314.03;;;7.40;87.67
11053;BME280;55230;42.602;23.470;2023-03-21T04:00:26;93310.16;;;7.41;87.81
11053;BME280;55230;42.602;23.470;2023-03-21T04:02:57;93267.38;;;7.00;87.26
11053;BME280;55230;42.602;23.470;2023-03-21T04:05:24;93304.59;;;7.48;87.27
11053;BME280;55230;42.602;23.470;2023-03-21T04:07:51;93310.34;;;7.59;86.57
11053;BME280;55230;42.602;23.470;2023-03-21T04:10:19;93261.47;;;7.30;85.91
11053;BME280;55230;42.602;23.470;2023-03-21T04:12:48;93305.50;;;7.67;85.98
11053;BME280;55230;42.602;23.470;2023-03-21T04:15:15;93307.22;;;7.73;85.50
11053;BME280;55230;42.602;23.470;2023-03-21T04:17:43;93229.22;;;7.21;85.74
11053;BME280;55230;42.602;23.470;2023-03-21T04:20:11;93299.16;;;7.73;85.77
11053;BME280;55230;42.602;23.470;2023-03-21T04:22:38;93261.34;;;7.46;85.75
11053;BME280;55230;42.602;23.470;2023-03-21T04:25:06;93329.56;;;7.58;86.00
11053;BME280;55230;42.602;23.470;2023-03-21T04:27:33;93259.22;;;7.29;84.96
11053;BME280;55230;42.602;23.470;2023-03-21T04:30:01;93287.06;;;7.56;84.73
11053;BME280;55230;42.602;23.470;2023-03-21T04:32:28;93303.31;;;7.87;84.36
11053;BME280;55230;42.602;23.470;2023-03-21T04:34:58;93300.22;;;7.88;84.43
11053;BME280;55230;42.602;23.470;2023-03-21T04:37:25;93296.97;;;7.93;83.82
11053;BME280;55230;42.602;23.470;2023-03-21T04:39:52;93246.81;;;7.56;84.17
11053;BME280;55230;42.602;23.470;2023-03-21T04:42:19;93300.34;;;7.85;84.78
11053;BME280;55230;42.602;23.470;2023-03-21T04:44:46;93298.81;;;7.84;84.56
11053;BME280;55230;42.602;23.470;2023-03-21T04:47:14;93299.78;;;7.90;84.25
11053;BME280;55230;42.602;23.470;2023-03-21T04:49:44;93304.72;;;7.91;84.38
11053;BME280;55230;42.602;23.470;2023-03-21T04:52:12;93128.56;;;6.70;84.80
11053;BME280;55230;42.602;23.470;2023-03-21T04:54:39;93205.06;;;7.21;85.65
11053;BME280;55230;42.602;23.470;2023-03-21T04:57:06;93308.44;;;8.06;85.34
11053;BME280;55230;42.602;23.470;2023-03-21T04:59:34;93259.31;;;7.84;84.42
11053;BME280;55230;42.602;23.470;2023-03-21T05:02:00;93025.81;;;6.30;83.21
11053;BME280;55230;42.602;23.470;2023-03-21T05:04:29;93314.44;;;8.45;83.23
11053;BME280;55230;42.602;23.470;2023-03-21T05:06:56;93314.31;;;8.48;82.57
11053;BME280;55230;42.602;23.470;2023-03-21T05:09:23;93318.06;;;8.72;81.58
11053;BME280;55230;42.602;23.470;2023-03-21T05:11:50;93314.94;;;8.74;81.89
11053;BME280;55230;42.602;23.470;2023-03-21T05:14:19;93314.41;;;8.88;81.11
11053;BME280;55230;42.602;23.470;2023-03-21T05:16:47;93324.03;;;8.98;80.27
11053;BME280;55230;42.602;23.470;2023-03-21T05:19:17;93084.75;;;7.45;80.70
11053;BME280;55230;42.602;23.470;2023-03-21T05:21:46;93165.13;;;7.91;80.37
11053;BME280;55230;42.602;23.470;2023-03-21T05:24:14;93322.75;;;9.11;81.02
11053;BME280;55230;42.602;23.470;2023-03-21T05:26:43;93204.97;;;8.36;80.60
11053;BME280;55230;42.602;23.470;2023-03-21T05:29:15;93259.03;;;8.90;79.91
11053;BME280;55230;42.602;23.470;2023-03-21T05:31:42;93322.78;;;9.51;78.93
11053;BME280;55230;42.602;23.470;2023-03-21T05:34:09;93323.66;;;9.48;79.98
11053;BME280;55230;42.602;23.470;2023-03-21T05:36:35;93236.88;;;8.86;79.40
11053;BME280;55230;42.602;23.470;2023-03-21T05:39:05;93239.53;;;9.17;79.02
11053;BME280;55230;42.602;23.470;2023-03-21T05:41:32;93265.94;;;9.49;78.25
11053;BME280;55230;42.602;23.470;2023-03-21T05:43:58;93326.66;;;10.08;77.85
11053;BME280;55230;42.602;23.470;2023-03-21T05:46:26;93253.28;;;9.68;76.43
11053;BME280;55230;42.602;23.470;2023-03-21T05:48:53;93309.50;;;10.41;75.93
11053;BME280;55230;42.602;23.470;2023-03-21T05:51:20;93314.88;;;10.60;75.27
11053;BME280;55230;42.602;23.470;2023-03-21T05:53:47;93318.16;;;10.82;75.31
11053;BME280;55230;42.602;23.470;2023-03-21T05:56:15;93287.91;;;10.78;73.32
11053;BME280;55230;42.602;23.470;2023-03-21T05:58:42;93316.56;;;11.26;72.71
11053;BME280;55230;42.602;23.470;2023-03-21T06:01:09;93061.41;;;9.49;72.15
11053;BME280;55230;42.602;23.470;2023-03-21T06:03:35;93142.75;;;9.80;72.54
11053;BME280;55230;42.602;23.470;2023-03-21T06:06:03;93259.09;;;10.93;70.93
11053;BME280;55230;42.602;23.470;2023-03-21T06:08:30;93296.72;;;11.80;71.81
11053;BME280;55230;42.602;23.470;2023-03-21T06:10:57;93317.31;;;12.01;66.98
11053;BME280;55230;42.602;23.470;2023-03-21T06:13:25;93299.59;;;12.23;65.25
11053;BME280;55230;42.602;23.470;2023-03-21T06:15:52;93263.81;;;12.28;61.07
11053;BME280;55230;42.602;23.470;2023-03-21T06:18:18;93333.56;;;12.15;62.37
11053;BME280;55230;42.602;23.470;2023-03-21T06:20:45;93177.66;;;11.36;62.29
11053;BME280;55230;42.602;23.470;2023-03-21T06:23:12;93285.81;;;11.65;61.72
11053;BME280;55230;42.602;23.470;2023-03-21T06:25:40;93214.53;;;11.06;63.13
11053;BME280;55230;42.602;23.470;2023-03-21T06:28:06;93266.25;;;11.05;63.43
11053;BME280;55230;42.602;23.470;2023-03-21T06:30:34;93121.81;;;9.93;66.46
11053;BME280;55230;42.602;23.470;2023-03-21T06:33:01;93275.63;;;11.18;63.88
11053;BME280;55230;42.602;23.470;2023-03-21T06:35:28;93303.56;;;11.48;62.56
11053;BME280;55230;42.602;23.470;2023-03-21T06:37:55;93258.13;;;11.14;63.30
11053;BME280;55230;42.602;23.470;2023-03-21T06:40:23;93304.16;;;11.52;63.20
11053;BME280;55230;42.602;23.470;2023-03-21T06:42:49;93218.84;;;10.71;64.89
11053;BME280;55230;42.602;23.470;2023-03-21T06:45:16;93207.09;;;10.92;64.42
11053;BME280;55230;42.602;23.470;2023-03-21T06:47:44;93244.94;;;11.48;63.61
11053;BME280;55230;42.602;23.470;2023-03-21T06:50:11;93309.19;;;12.24;62.06
11053;BME280;55230;42.602;23.470;2023-03-21T06:52:38;93303.72;;;12.71;63.93
11053;BME280;55230;42.602;23.470;2023-03-21T06:55:06;93312.09;;;12.73;59.48
11053;BME280;55230;42.602;23.470;2023-03-21T06:57:33;93313.16;;;12.38;59.71
11053;BME280;55230;42.602;23.470;2023-03-21T07:00:00;93317.88;;;12.28;61.38
11053;BME280;55230;42.602;23.470;2023-03-21T07:02:27;93231.94;;;11.38;61.85
11053;BME280;55230;42.602;23.470;2023-03-21T07:04:56;93310.47;;;12.14;62.15
11053;BME280;55230;42.602;23.470;2023-03-21T07:07:24;93319.59;;;12.40;62.17
11053;BME280;55230;42.602;23.470;2023-03-21T07:09:51;93322.47;;;12.37;69.32
11053;BME280;55230;42.602;23.470;2023-03-21T07:12:18;93316.56;;;12.00;73.00
11053;BME280;55230;42.602;23.470;2023-03-21T07:14:45;93318.97;;;11.98;73.44
11053;BME280;55230;42.602;23.470;2023-03-21T07:17:11;93353.78;;;11.96;73.31
11053;BME280;55230;42.602;23.470;2023-03-21T07:19:38;93129.00;;;10.56;72.62
11053;BME280;55230;42.602;23.470;2023-03-21T07:22:06;93321.28;;;12.14;72.79
11053;BME280;55230;42.602;23.470;2023-03-21T07:24:33;93157.00;;;10.59;73.24
11053;BME280;55230;42.602;23.470;2023-03-21T07:27:00;92909.06;;;8.83;73.38
11053;BME280;55230;42.602;23.470;2023-03-21T07:29:26;93329.75;;;11.75;74.05
11053;BME280;55230;42.602;23.470;2023-03-21T07:31:53;93320.38;;;11.85;74.25
11053;BME280;55230;42.602;23.470;2023-03-21T07:34:20;93309.41;;;11.88;75.85
11053;BME280;55230;42.602;23.470;2023-03-21T07:36:46;93320.22;;;11.88;72.68
11053;BME280;55230;42.602;23.470;2023-03-21T07:39:15;93303.13;;;11.82;73.18
11053;BME280;55230;42.602;23.470;2023-03-21T07:41:42;93317.66;;;11.94;73.02
11053;BME280;55230;42.602;23.470;2023-03-21T07:44:09;93309.06;;;11.95;74.12
11053;BME280;55230;42.602;23.470;2023-03-21T07:46:35;93275.06;;;11.56;74.49
11053;BME280;55230;42.602;23.470;2023-03-21T07:49:02;93232.03;;;11.20;74.02
11053;BME280;55230;42.602;23.470;2023-03-21T07:51:30;93270.84;;;11.64;73.61
11053;BME280;55230;42.602;23.470;2023-03-21T07:53:59;93317.88;;;12.05;74.49
11053;BME280;55230;42.602;23.470;2023-03-21T07:56:28;93270.16;;;12.02;72.02
11053;BME280;55230;42.602;23.470;2023-03-21T07:58:54;93309.31;;;12.44;71.51
11053;BME280;55230;42.602;23.470;2023-03-21T08:01:21;93318.31;;;12.50;71.01
11053;BME280;55230;42.602;23.470;2023-03-21T08:03:48;93317.72;;;12.46;69.76
11053;BME280;55230;42.602;23.470;2023-03-21T08:06:15;93152.16;;;11.37;70.59
11053;BME280;55230;42.602;23.470;2023-03-21T08:08:42;93358.47;;;12.43;69.27
11053;BME280;55230;42.602;23.470;2023-03-21T08:11:10;93320.44;;;12.46;69.13
11053;BME280;55230;42.602;23.470;2023-03-21T08:13:38;93294.00;;;12.27;67.88
11053;BME280;55230;42.602;23.470;2023-03-21T08:16:06;93273.72;;;12.08;68.13
11053;BME280;55230;42.602;23.470;2023-03-21T08:18:33;93300.31;;;12.47;68.73
11053;BME280;55230;42.602;23.470;2023-03-21T08:20:59;93327.25;;;12.95;68.57
11053;BME280;55230;42.602;23.470;2023-03-21T08:23:27;93323.94;;;13.14;66.09
11053;BME280;55230;42.602;23.470;2023-03-21T08:25:54;93323.16;;;12.99;65.57
11053;BME280;55230;42.602;23.470;2023-03-21T08:28:22;93158.06;;;12.12;65.55
11053;BME280;55230;42.602;23.470;2023-03-21T08:30:50;93309.72;;;13.05;67.27
11053;BME280;55230;42.602;23.470;2023-03-21T08:33:17;93314.59;;;13.30;65.80
11053;BME280;55230;42.602;23.470;2023-03-21T08:35:44;93228.50;;;12.75;62.66
11053;BME280;55230;42.602;23.470;2023-03-21T08:38:10;93315.59;;;13.47;62.93
11053;BME280;55230;42.602;23.470;2023-03-21T08:40:37;93312.53;;;13.25;63.68
11053;BME280;55230;42.602;23.470;2023-03-21T08:43:04;93321.53;;;13.80;60.61
11053;BME280;55230;42.602;23.470;2023-03-21T08:45:31;93295.28;;;14.06;61.54
11053;BME280;55230;42.602;23.470;2023-03-21T08:47:59;93330.84;;;14.48;57.92
11053;BME280;55230;42.602;23.470;2023-03-21T08:50:26;93152.72;;;13.05;56.83
11053;BME280;55230;42.602;23.470;2023-03-21T08:52:56;93223.72;;;13.29;58.56
11053;BME280;55230;42.602;23.470;2023-03-21T08:55:22;93277.88;;;13.58;59.76
11053;BME280;55230;42.602;23.470;2023-03-21T08:57:49;93159.09;;;12.14;60.56
11053;BME280;55230;42.602;23.470;2023-03-21T09:00:17;93275.16;;;13.00;60.94
11053;BME280;55230;42.602;23.470;2023-03-21T09:02:46;93319.53;;;13.46;61.01
11053;BME280;55230;42.602;23.470;2023-03-21T09:05:15;93315.44;;;13.21;61.82
11053;BME280;55230;42.602;23.470;2023-03-21T09:07:43;93314.97;;;13.23;60.88
11053;BME280;55230;42.602;23.470;2023-03-21T09:10:12;93313.84;;;13.29;61.84
11053;BME280;55230;42.602;23.470;2023-03-21T09:12:39;93304.50;;;13.45;64.45
11053;BME280;55230;42.602;23.470;2023-03-21T09:15:07;93281.91;;;13.33;61.59
11053;BME280;55230;42.602;23.470;2023-03-21T09:17:34;93296.34;;;13.94;61.85
11053;BME280;55230;42.602;23.470;2023-03-21T09:20:09;93300.53;;;13.75;58.31
11053;BME280;55230;42.602;23.470;2023-03-21T09:22:44;93106.72;;;12.12;60.16
11053;BME280;55230;42.602;23.470;2023-03-21T09:25:12;93157.44;;;12.31;60.29
11053;BME280;55230;42.602;23.470;2023-03-21T09:27:39;93285.06;;;13.46;60.35
11053;BME280;55230;42.602;23.470;2023-03-21T09:30:08;93290.56;;;13.52;60.70
11053;BME280;55230;42.602;23.470;2023-03-21T09:32:35;93277.91;;;13.78;58.72
11053;BME280;55230;42.602;23.470;2023-03-21T09:35:03;93288.03;;;14.18;59.97
11053;BME280;55230;42.602;23.470;2023-03-21T09:37:31;93274.75;;;14.20;56.43
11053;BME280;55230;42.602;23.470;2023-03-21T09:39:59;93279.00;;;14.41;55.38
11053;BME280;55230;42.602;23.470;2023-03-21T09:42:32;93149.28;;;13.79;54.67
11053;BME280;55230;42.602;23.470;2023-03-21T09:45:07;93211.50;;;14.28;55.96
11053;BME280;55230;42.602;23.470;2023-03-21T09:47:40;93267.53;;;14.77;55.44
11053;BME280;55230;42.602;23.470;2023-03-21T09:50:20;93194.13;;;14.66;53.79
11053;BME280;55230;42.602;23.470;2023-03-21T09:52:55;93267.41;;;15.43;53.35
11053;BME280;55230;42.602;23.470;2023-03-21T09:55:25;93216.09;;;15.25;52.27
11053;BME280;55230;42.602;23.470;2023-03-21T09:58:00;93266.72;;;15.90;50.34
11053;BME280;55230;42.602;23.470;2023-03-21T10:00:35;93172.50;;;15.39;48.48
11053;BME280;55230;42.602;23.470;2023-03-21T10:03:04;93255.44;;;16.56;46.39
11053;BME280;55230;42.602;23.470;2023-03-21T10:05:37;93117.50;;;15.55;47.50
11053;BME280;55230;42.602;23.470;2023-03-21T10:08:13;93187.94;;;15.59;47.30
11053;BME280;55230;42.602;23.470;2023-03-21T10:10:46;93238.91;;;16.17;48.05
11053;BME280;55230;42.602;23.470;2023-03-21T10:13:16;93108.81;;;15.03;49.25
11053;BME280;55230;42.602;23.470;2023-03-21T10:15:45;93196.56;;;15.21;51.08
11053;BME280;55230;42.602;23.470;2023-03-21T10:18:19;93236.19;;;15.69;52.21
11053;BME280;55230;42.602;23.470;2023-03-21T10:20:47;93063.94;;;14.71;51.56
11053;BME280;55230;42.602;23.470;2023-03-21T10:23:16;93192.31;;;15.87;45.40
11053;BME280;55230;42.602;23.470;2023-03-21T10:25:49;93131.03;;;15.92;44.12
11053;BME280;55230;42.602;23.470;2023-03-21T10:28:20;93226.81;;;16.99;44.11
11053;BME280;55230;42.602;23.470;2023-03-21T10:30:49;93141.13;;;15.86;45.09
11053;BME280;55230;42.602;23.470;2023-03-21T10:33:19;93239.44;;;16.85;43.89
11053;BME280;55230;42.602;23.470;2023-03-21T10:35:49;93248.13;;;17.17;42.70
11053;BME280;55230;42.602;23.470;2023-03-21T10:38:18;93223.63;;;17.67;43.12
11053;BME280;55230;42.602;23.470;2023-03-21T10:40:48;93171.50;;;17.76;38.90
11053;BME280;55230;42.602;23.470;2023-03-21T10:43:18;93238.56;;;18.34;38.88
11053;BME280;55230;42.602;23.470;2023-03-21T10:45:46;93185.81;;;18.04;38.66
11053;BME280;55230;42.602;23.470;2023-03-21T10:48:14;93244.53;;;18.32;37.70
11053;BME280;55230;42.602;23.470;2023-03-21T10:50:41;93216.38;;;17.86;37.82
11053;BME280;55230;42.602;23.470;2023-03-21T10:53:15;93226.47;;;18.13;37.64
11053;BME280;55230;42.602;23.470;2023-03-21T10:55:47;93111.84;;;16.34;37.98
11053;BME280;55230;42.602;23.470;2023-03-21T10:58:19;93147.94;;;16.18;38.74
11053;BME280;55230;42.602;23.470;2023-03-21T11:00:54;93121.38;;;15.91;40.57
11053;BME280;55230;42.602;23.470;2023-03-21T11:03:26;93006.31;;;14.93;39.92
11053;BME280;55230;42.602;23.470;2023-03-21T11:06:05;93199.28;;;16.69;38.56
11053;BME280;55230;42.602;23.470;2023-03-21T11:08:38;93204.44;;;16.51;39.77
11053;BME280;55230;42.602;23.470;2023-03-21T11:11:08;93204.38;;;16.34;39.76
11053;BME280;55230;42.602;23.470;2023-03-21T11:13:38;93120.78;;;15.65;39.33
11053;BME280;55230;42.602;23.470;2023-03-21T11:16:08;93197.25;;;16.53;41.23
11053;BME280;55230;42.602;23.470;2023-03-21T11:18:40;93194.38;;;16.95;42.08
11053;BME280;55230;42.602;23.470;2023-03-21T11:21:09;93189.66;;;17.12;39.47
11053;BME280;55230;42.602;23.470;2023-03-21T11:23:40;93137.91;;;16.68;39.43
11053;BME280;55230;42.602;23.470;2023-03-21T11:26:14;93014.94;;;15.45;40.14
11053;BME280;55230;42.602;23.470;2023-03-21T11:28:42;93181.25;;;16.99;39.87
11053;BME280;55230;42.602;23.470;2023-03-21T11:31:10;93201.31;;;17.18;38.65
11053;BME280;55230;42.602;23.470;2023-03-21T11:33:38;93012.16;;;16.20;38.36
11053;BME280;55230;42.602;23.470;2023-03-21T11:36:26;93181.25;;;17.16;38.17
11053;BME280;55230;42.602;23.470;2023-03-21T11:38:58;93175.53;;;17.19;37.25
11053;BME280;55230;42.602;23.470;2023-03-21T11:41:31;93169.34;;;17.47;37.24
11053;BME280;55230;42.602;23.470;2023-03-21T11:43:59;93164.41;;;17.06;39.22
11053;BME280;55230;42.602;23.470;2023-03-21T11:46:28;93182.00;;;16.94;37.99
11053;BME280;55230;42.602;23.470;2023-03-21T11:48:56;93098.56;;;16.75;38.77
11053;BME280;55230;42.602;23.470;2023-03-21T11:51:28;93090.31;;;16.36;37.14
11053;BME280;55230;42.602;23.470;2023-03-21T11:54:06;93082.22;;;16.47;38.38
11053;BME280;55230;42.602;23.470;2023-03-21T11:56:39;93045.25;;;15.91;38.21
11053;BME280;55230;42.602;23.470;2023-03-21T11:59:30;93074.75;;;16.42;38.59
11053;BME280;55230;42.602;23.470;2023-03-21T12:02:12;93149.53;;;17.35;39.27
11053;BME280;55230;42.602;23.470;2023-03-21T12:04:50;92865.78;;;15.58;37.59
11053;BME280;55230;42.602;23.470;2023-03-21T12:07:38;93142.00;;;17.80;37.65
11053;BME280;55230;42.602;23.470;2023-03-21T12:10:31;93123.56;;;17.06;37.38
11053;BME280;55230;42.602;23.470;2023-03-21T12:13:12;93142.09;;;17.24;38.11
11053;BME280;55230;42.602;23.470;2023-03-21T12:15:49;93131.47;;;16.93;37.94
11053;BME280;55230;42.602;23.470;2023-03-21T12:18:36;93095.56;;;16.67;39.36
11053;BME280;55230;42.602;23.470;2023-03-21T12:21:11;93136.19;;;16.87;38.91
11053;BME280;55230;42.602;23.470;2023-03-21T12:23:57;93106.72;;;16.69;39.31
11053;BME280;55230;42.602;23.470;2023-03-21T12:26:28;93029.03;;;16.46;39.49
11053;BME280;55230;42.602;23.470;2023-03-21T12:29:10;93101.78;;;16.73;39.63
11053;BME280;55230;42.602;23.470;2023-03-21T12:34:47;93059.69;;;16.52;38.50
11053;BME280;55230;42.602;23.470;2023-03-21T12:37:23;93021.06;;;16.43;38.67
11053;BME280;55230;42.602;23.470;2023-03-21T12:39:54;93119.25;;;17.66;38.72
11053;BME280;55230;42.602;23.470;2023-03-21T12:42:42;93115.06;;;17.49;37.58
11053;BME280;55230;42.602;23.470;2023-03-21T12:45:17;93119.56;;;17.18;38.11
11053;BME280;55230;42.602;23.470;2023-03-21T12:47:48;92604.81;;;13.59;39.23
11053;BME280;55230;42.602;23.470;2023-03-21T12:50:20;93107.22;;;16.95;39.71
11053;BME280;55230;42.602;23.470;2023-03-21T12:52:50;93102.22;;;17.21;38.86
11053;BME280;55230;42.602;23.470;2023-03-21T12:55:21;93110.88;;;17.53;38.55
11053;BME280;55230;42.602;23.470;2023-03-21T12:57:52;93026.63;;;17.27;37.88
11053;BME280;55230;42.602;23.470;2023-03-21T13:00:25;93090.03;;;18.13;38.19
11053;BME280;55230;42.602;23.470;2023-03-21T13:02:56;93091.38;;;17.90;37.42
11053;BME280;55230;42.602;23.470;2023-03-21T13:05:27;93044.06;;;16.97;38.38
11053;BME280;55230;42.602;23.470;2023-03-21T13:07:58;93086.16;;;16.96;39.44
11053;BME280;55230;42.602;23.470;2023-03-21T13:10:26;93039.38;;;16.59;39.74
11053;BME280;55230;42.602;23.470;2023-03-21T13:13:11;93088.13;;;16.95;39.94
11053;BME280;55230;42.602;23.470;2023-03-21T13:15:54;93088.63;;;16.88;39.55